sensor_id;sensor_type;location;lat;lon;timestamp;P1;durP1;ratioP1;P2;durP2;ratioP2
4452;SDS011;2239;48.152;11.584;2022-09-30T00:01:30;1.53;;;1.43;;
4452;SDS011;2239;48.152;11.584;2022-09-30T00:03:56;4.27;;;2.27;;
4452;SDS011;2239;48.152;11.584;2022-09-30T00:06:23;2.33;;;1.20;;
4452;SDS011;2239;48.152;11.584;2022-09-30T00:08:51;4.10;;;2.30;;
4452;SDS011;2239;48.152;11.584;2022-09-30T00:11:19;3.20;;;1.80;;
4452;SDS011;2239;48.152;11.584;2022-09-30T00:13:46;3.60;;;1.70;;
4452;SDS011;2239;48.152;11.584;2022-09-30T00:16:16;5.40;;;2.10;;
4452;SDS011;2239;48.152;11.584;2022-09-30T00:18:43;4.07;;;2.17;;
4452;SDS011;2239;48.152;11.584;2022-09-30T00:21:09;1.63;;;1.37;;
4452;SDS011;2239;48.152;11.584;2022-09-30T00:23:36;4.40;;;1.60;;
4452;SDS011;2239;48.152;11.584;2022-09-30T00:26:04;3.20;;;2.37;;
4452;SDS011;2239;48.152;11.584;2022-09-30T00:28:32;3.00;;;1.90;;
4452;SDS011;2239;48.152;11.584;2022-09-30T00:30:58;2.80;;;1.70;;
4452;SDS011;2239;48.152;11.584;2022-09-30T00:33:32;5.30;;;2.50;;
4452;SDS011;2239;48.152;11.584;2022-09-30T00:35:58;6.13;;;2.30;;
4452;SDS011;2239;48.152;11.584;2022-09-30T00:38:25;5.00;;;2.57;;
4452;SDS011;2239;48.152;11.584;2022-09-30T00:40:51;3.20;;;1.77;;
4452;SDS011;2239;48.152;11.584;2022-09-30T00:46:10;3.07;;;1.70;;
4452;SDS011;2239;48.152;11.584;2022-09-30T00:48:46;2.73;;;2.17;;
4452;SDS011;2239;48.152;11.584;2022-09-30T00:51:17;3.57;;;1.43;;
4452;SDS011;2239;48.152;11.584;2022-09-30T00:53:51;3.00;;;2.13;;
4452;SDS011;2239;48.152;11.584;2022-09-30T00:56:23;4.00;;;1.43;;
4452;SDS011;2239;48.152;11.584;2022-09-30T01:01:20;1.70;;;1.10;;
4452;SDS011;2239;48.152;11.584;2022-09-30T01:03:49;2.63;;;2.10;;
4452;SDS011;2239;48.152;11.584;2022-09-30T01:06:17;2.63;;;2.03;;
4452;SDS011;2239;48.152;11.584;2022-09-30T01:08:45;5.27;;;2.30;;
4452;SDS011;2239;48.152;11.584;2022-09-30T01:11:12;6.30;;;2.50;;
4452;SDS011;2239;48.152;11.584;2022-09-30T01:13:39;2.20;;;1.20;;
4452;SDS011;2239;48.152;11.584;2022-09-30T01:24:15;5.40;;;1.90;;
4452;SDS011;2239;48.152;11.584;2022-09-30T01:27:06;3.57;;;1.70;;
4452;SDS011;2239;48.152;11.584;2022-09-30T01:30:02;1.80;;;1.40;;
4452;SDS011;2239;48.152;11.584;2022-09-30T01:51:42;1.63;;;1.10;;
4452;SDS011;2239;48.152;11.584;2022-09-30T01:57:07;3.17;;;1.03;;
4452;SDS011;2239;48.152;11.584;2022-09-30T01:59:40;6.70;;;1.77;;
4452;SDS011;2239;48.152;11.584;2022-09-30T02:02:27;3.60;;;1.80;;
4452;SDS011;2239;48.152;11.584;2022-09-30T02:07:34;5.63;;;1.47;;
4452;SDS011;2239;48.152;11.584;2022-09-30T02:10:06;1.70;;;1.60;;
4452;SDS011;2239;48.152;11.584;2022-09-30T02:12:37;1.93;;;1.57;;
4452;SDS011;2239;48.152;11.584;2022-09-30T02:15:12;5.57;;;1.73;;
4452;SDS011;2239;48.152;11.584;2022-09-30T02:17:46;4.40;;;1.43;;
4452;SDS011;2239;48.152;11.584;2022-09-30T02:20:26;1.40;;;1.30;;
4452;SDS011;2239;48.152;11.584;2022-09-30T02:23:05;1.43;;;1.23;;
4452;SDS011;2239;48.152;11.584;2022-09-30T02:25:43;1.43;;;1.10;;
4452;SDS011;2239;48.152;11.584;2022-09-30T02:28:13;2.20;;;1.07;;
4452;SDS011;2239;48.152;11.584;2022-09-30T02:30:46;1.40;;;1.30;;
4452;SDS011;2239;48.152;11.584;2022-09-30T02:33:16;4.10;;;1.40;;
4452;SDS011;2239;48.152;11.584;2022-09-30T02:35:48;1.80;;;1.47;;
4452;SDS011;2239;48.152;11.584;2022-09-30T02:38:23;6.20;;;1.10;;
4452;SDS011;2239;48.152;11.584;2022-09-30T02:40:57;6.10;;;1.23;;
4452;SDS011;2239;48.152;11.584;2022-09-30T02:43:28;6.23;;;2.07;;
4452;SDS011;2239;48.152;11.584;2022-09-30T03:00:06;3.60;;;2.07;;
4452;SDS011;2239;48.152;11.584;2022-09-30T03:02:33;3.70;;;1.97;;
4452;SDS011;2239;48.152;11.584;2022-09-30T03:04:59;1.10;;;1.00;;
4452;SDS011;2239;48.152;11.584;2022-09-30T03:07:25;0.97;;;0.87;;
4452;SDS011;2239;48.152;11.584;2022-09-30T03:09:54;1.77;;;1.10;;
4452;SDS011;2239;48.152;11.584;2022-09-30T03:15:08;5.37;;;2.13;;
4452;SDS011;2239;48.152;11.584;2022-09-30T03:17:39;2.20;;;1.70;;
4452;SDS011;2239;48.152;11.584;2022-09-30T03:23:14;4.17;;;1.63;;
4452;SDS011;2239;48.152;11.584;2022-09-30T03:28:35;1.13;;;1.00;;
4452;SDS011;2239;48.152;11.584;2022-09-30T03:42:01;4.47;;;1.10;;
4452;SDS011;2239;48.152;11.584;2022-09-30T03:44:45;2.30;;;1.13;;
4452;SDS011;2239;48.152;11.584;2022-09-30T03:47:26;2.70;;;1.53;;
4452;SDS011;2239;48.152;11.584;2022-09-30T03:49:56;2.03;;;1.00;;
4452;SDS011;2239;48.152;11.584;2022-09-30T03:52:25;2.67;;;1.00;;
4452;SDS011;2239;48.152;11.584;2022-09-30T03:54:54;1.60;;;1.20;;
4452;SDS011;2239;48.152;11.584;2022-09-30T03:57:26;3.23;;;1.03;;
4452;SDS011;2239;48.152;11.584;2022-09-30T03:59:55;4.63;;;1.10;;
4452;SDS011;2239;48.152;11.584;2022-09-30T04:02:21;2.90;;;1.30;;
4452;SDS011;2239;48.152;11.584;2022-09-30T04:04:48;2.80;;;1.03;;
4452;SDS011;2239;48.152;11.584;2022-09-30T04:07:13;2.77;;;1.60;;
4452;SDS011;2239;48.152;11.584;2022-09-30T04:09:39;2.83;;;1.47;;
4452;SDS011;2239;48.152;11.584;2022-09-30T04:12:05;2.90;;;2.37;;
4452;SDS011;2239;48.152;11.584;2022-09-30T04:14:31;2.17;;;1.30;;
4452;SDS011;2239;48.152;11.584;2022-09-30T04:16:57;1.57;;;1.00;;
4452;SDS011;2239;48.152;11.584;2022-09-30T04:19:23;1.20;;;0.93;;
4452;SDS011;2239;48.152;11.584;2022-09-30T04:21:52;1.83;;;0.80;;
4452;SDS011;2239;48.152;11.584;2022-09-30T04:24:19;3.03;;;2.03;;
4452;SDS011;2239;48.152;11.584;2022-09-30T04:26:46;4.10;;;1.93;;
4452;SDS011;2239;48.152;11.584;2022-09-30T04:29:12;2.50;;;1.63;;
4452;SDS011;2239;48.152;11.584;2022-09-30T04:31:37;1.53;;;1.00;;
4452;SDS011;2239;48.152;11.584;2022-09-30T04:34:03;2.77;;;1.33;;
4452;SDS011;2239;48.152;11.584;2022-09-30T04:36:29;2.60;;;1.17;;
4452;SDS011;2239;48.152;11.584;2022-09-30T04:38:54;1.43;;;0.83;;
4452;SDS011;2239;48.152;11.584;2022-09-30T04:41:20;2.20;;;1.10;;
4452;SDS011;2239;48.152;11.584;2022-09-30T04:43:46;1.37;;;1.10;;
4452;SDS011;2239;48.152;11.584;2022-09-30T04:46:12;1.63;;;1.13;;
4452;SDS011;2239;48.152;11.584;2022-09-30T04:48:42;1.43;;;1.30;;
4452;SDS011;2239;48.152;11.584;2022-09-30T04:51:12;1.27;;;1.13;;
4452;SDS011;2239;48.152;11.584;2022-09-30T04:53:39;1.80;;;1.47;;
4452;SDS011;2239;48.152;11.584;2022-09-30T04:56:05;1.97;;;1.87;;
4452;SDS011;2239;48.152;11.584;2022-09-30T04:58:31;1.67;;;0.90;;
4452;SDS011;2239;48.152;11.584;2022-09-30T05:01:16;1.50;;;1.40;;
4452;SDS011;2239;48.152;11.584;2022-09-30T05:03:42;2.37;;;1.80;;
4452;SDS011;2239;48.152;11.584;2022-09-30T05:06:09;2.20;;;1.70;;
4452;SDS011;2239;48.152;11.584;2022-09-30T05:08:35;1.60;;;1.40;;
4452;SDS011;2239;48.152;11.584;2022-09-30T05:11:04;4.83;;;1.37;;
4452;SDS011;2239;48.152;11.584;2022-09-30T05:13:37;6.87;;;1.80;;
4452;SDS011;2239;48.152;11.584;2022-09-30T05:16:04;2.90;;;1.40;;
4452;SDS011;2239;48.152;11.584;2022-09-30T05:18:31;1.73;;;1.10;;
4452;SDS011;2239;48.152;11.584;2022-09-30T05:21:01;2.50;;;1.30;;
4452;SDS011;2239;48.152;11.584;2022-09-30T05:23:28;4.30;;;1.47;;
4452;SDS011;2239;48.152;11.584;2022-09-30T05:25:55;4.03;;;2.13;;
4452;SDS011;2239;48.152;11.584;2022-09-30T05:28:20;3.57;;;1.20;;
4452;SDS011;2239;48.152;11.584;2022-09-30T05:30:47;3.13;;;1.87;;
4452;SDS011;2239;48.152;11.584;2022-09-30T05:33:14;1.67;;;1.50;;
4452;SDS011;2239;48.152;11.584;2022-09-30T05:35:41;1.57;;;1.43;;
4452;SDS011;2239;48.152;11.584;2022-09-30T05:38:07;7.10;;;1.30;;
4452;SDS011;2239;48.152;11.584;2022-09-30T05:40:36;4.33;;;2.20;;
4452;SDS011;2239;48.152;11.584;2022-09-30T05:43:03;1.57;;;0.90;;
4452;SDS011;2239;48.152;11.584;2022-09-30T05:45:29;6.83;;;2.80;;
4452;SDS011;2239;48.152;11.584;2022-09-30T05:47:55;1.47;;;0.90;;
4452;SDS011;2239;48.152;11.584;2022-09-30T05:50:22;4.13;;;2.30;;
4452;SDS011;2239;48.152;11.584;2022-09-30T05:52:48;3.50;;;1.80;;
4452;SDS011;2239;48.152;11.584;2022-09-30T05:55:14;3.73;;;1.30;;
4452;SDS011;2239;48.152;11.584;2022-09-30T05:57:41;4.60;;;1.70;;
4452;SDS011;2239;48.152;11.584;2022-09-30T06:00:08;1.67;;;0.90;;
4452;SDS011;2239;48.152;11.584;2022-09-30T06:02:34;2.70;;;1.47;;
4452;SDS011;2239;48.152;11.584;2022-09-30T06:05:04;3.57;;;1.70;;
4452;SDS011;2239;48.152;11.584;2022-09-30T06:07:32;3.93;;;2.70;;
4452;SDS011;2239;48.152;11.584;2022-09-30T06:09:58;4.50;;;2.40;;
4452;SDS011;2239;48.152;11.584;2022-09-30T06:12:24;2.00;;;1.70;;
4452;SDS011;2239;48.152;11.584;2022-09-30T06:14:51;2.53;;;1.97;;
4452;SDS011;2239;48.152;11.584;2022-09-30T06:17:17;3.13;;;1.17;;
4452;SDS011;2239;48.152;11.584;2022-09-30T06:19:43;8.27;;;2.80;;
4452;SDS011;2239;48.152;11.584;2022-09-30T06:22:08;5.77;;;1.70;;
4452;SDS011;2239;48.152;11.584;2022-09-30T06:24:34;2.53;;;2.07;;
4452;SDS011;2239;48.152;11.584;2022-09-30T06:26:59;2.40;;;1.97;;
4452;SDS011;2239;48.152;11.584;2022-09-30T06:29:25;4.20;;;2.07;;
4452;SDS011;2239;48.152;11.584;2022-09-30T06:31:51;6.90;;;2.13;;
4452;SDS011;2239;48.152;11.584;2022-09-30T06:34:16;2.50;;;1.20;;
4452;SDS011;2239;48.152;11.584;2022-09-30T06:36:42;4.20;;;1.97;;
4452;SDS011;2239;48.152;11.584;2022-09-30T06:39:07;4.03;;;1.40;;
4452;SDS011;2239;48.152;11.584;2022-09-30T06:41:33;7.23;;;2.70;;
4452;SDS011;2239;48.152;11.584;2022-09-30T06:44:02;3.40;;;2.57;;
4452;SDS011;2239;48.152;11.584;2022-09-30T06:46:27;4.03;;;2.57;;
4452;SDS011;2239;48.152;11.584;2022-09-30T06:48:53;6.70;;;2.60;;
4452;SDS011;2239;48.152;11.584;2022-09-30T06:51:21;2.40;;;1.03;;
4452;SDS011;2239;48.152;11.584;2022-09-30T06:53:49;1.70;;;1.27;;
4452;SDS011;2239;48.152;11.584;2022-09-30T06:56:18;6.37;;;2.37;;
4452;SDS011;2239;48.152;11.584;2022-09-30T06:58:44;4.47;;;2.17;;
4452;SDS011;2239;48.152;11.584;2022-09-30T07:01:10;5.73;;;1.97;;
4452;SDS011;2239;48.152;11.584;2022-09-30T07:03:41;1.50;;;1.30;;
4452;SDS011;2239;48.152;11.584;2022-09-30T07:06:08;5.03;;;2.07;;
4452;SDS011;2239;48.152;11.584;2022-09-30T07:08:35;6.73;;;2.47;;
4452;SDS011;2239;48.152;11.584;2022-09-30T07:11:07;5.07;;;1.93;;
4452;SDS011;2239;48.152;11.584;2022-09-30T07:13:38;5.33;;;2.27;;
4452;SDS011;2239;48.152;11.584;2022-09-30T07:16:11;5.53;;;2.20;;
4452;SDS011;2239;48.152;11.584;2022-09-30T07:18:38;9.50;;;3.37;;
4452;SDS011;2239;48.152;11.584;2022-09-30T07:21:06;6.07;;;1.77;;
4452;SDS011;2239;48.152;11.584;2022-09-30T07:23:32;7.53;;;2.93;;
4452;SDS011;2239;48.152;11.584;2022-09-30T07:25:59;6.03;;;2.27;;
4452;SDS011;2239;48.152;11.584;2022-09-30T07:28:29;4.77;;;2.13;;
4452;SDS011;2239;48.152;11.584;2022-09-30T07:30:58;4.57;;;1.37;;
4452;SDS011;2239;48.152;11.584;2022-09-30T07:33:27;6.13;;;2.50;;
4452;SDS011;2239;48.152;11.584;2022-09-30T07:35:55;2.87;;;1.77;;
4452;SDS011;2239;48.152;11.584;2022-09-30T07:38:25;4.90;;;2.50;;
4452;SDS011;2239;48.152;11.584;2022-09-30T07:40:55;2.17;;;1.43;;
4452;SDS011;2239;48.152;11.584;2022-09-30T07:43:27;2.87;;;1.97;;
4452;SDS011;2239;48.152;11.584;2022-09-30T07:46:04;2.30;;;1.70;;
4452;SDS011;2239;48.152;11.584;2022-09-30T07:48:40;2.90;;;1.40;;
4452;SDS011;2239;48.152;11.584;2022-09-30T07:51:29;1.80;;;1.17;;
4452;SDS011;2239;48.152;11.584;2022-09-30T07:54:00;2.80;;;1.90;;
4452;SDS011;2239;48.152;11.584;2022-09-30T07:56:30;4.20;;;1.45;;
4452;SDS011;2239;48.152;11.584;2022-09-30T07:58:57;6.17;;;2.13;;
4452;SDS011;2239;48.152;11.584;2022-09-30T08:01:25;5.00;;;1.67;;
4452;SDS011;2239;48.152;11.584;2022-09-30T08:03:53;4.37;;;1.60;;
4452;SDS011;2239;48.152;11.584;2022-09-30T08:06:21;2.50;;;1.13;;
4452;SDS011;2239;48.152;11.584;2022-09-30T08:08:49;7.30;;;2.00;;
4452;SDS011;2239;48.152;11.584;2022-09-30T08:11:16;4.87;;;1.70;;
4452;SDS011;2239;48.152;11.584;2022-09-30T08:13:41;3.47;;;1.63;;
4452;SDS011;2239;48.152;11.584;2022-09-30T08:16:07;7.63;;;1.90;;
4452;SDS011;2239;48.152;11.584;2022-09-30T08:18:33;1.87;;;0.97;;
4452;SDS011;2239;48.152;11.584;2022-09-30T08:21:02;1.50;;;1.10;;
4452;SDS011;2239;48.152;11.584;2022-09-30T08:23:30;2.60;;;1.30;;
4452;SDS011;2239;48.152;11.584;2022-09-30T08:26:17;2.07;;;1.20;;
4452;SDS011;2239;48.152;11.584;2022-09-30T08:28:42;2.03;;;1.10;;
4452;SDS011;2239;48.152;11.584;2022-09-30T08:31:15;2.20;;;1.33;;
4452;SDS011;2239;48.152;11.584;2022-09-30T08:33:42;1.90;;;1.00;;
4452;SDS011;2239;48.152;11.584;2022-09-30T08:36:09;1.63;;;1.00;;
4452;SDS011;2239;48.152;11.584;2022-09-30T08:38:42;2.53;;;1.33;;
4452;SDS011;2239;48.152;11.584;2022-09-30T08:46:45;1.37;;;0.90;;
4452;SDS011;2239;48.152;11.584;2022-09-30T08:52:18;1.53;;;0.80;;
4452;SDS011;2239;48.152;11.584;2022-09-30T08:54:52;2.10;;;0.57;;
4452;SDS011;2239;48.152;11.584;2022-09-30T08:57:19;1.20;;;0.70;;
4452;SDS011;2239;48.152;11.584;2022-09-30T08:59:47;1.57;;;0.60;;
4452;SDS011;2239;48.152;11.584;2022-09-30T09:04:56;1.20;;;0.90;;
4452;SDS011;2239;48.152;11.584;2022-09-30T09:10:32;0.50;;;0.40;;
4452;SDS011;2239;48.152;11.584;2022-09-30T09:21:28;0.73;;;0.70;;
4452;SDS011;2239;48.152;11.584;2022-09-30T09:24:09;1.87;;;0.70;;
4452;SDS011;2239;48.152;11.584;2022-09-30T09:27:02;1.47;;;0.90;;
4452;SDS011;2239;48.152;11.584;2022-09-30T09:29:54;1.13;;;0.60;;
4452;SDS011;2239;48.152;11.584;2022-09-30T09:32:30;0.60;;;0.50;;
4452;SDS011;2239;48.152;11.584;2022-09-30T09:34:57;1.30;;;0.90;;
4452;SDS011;2239;48.152;11.584;2022-09-30T09:37:37;1.13;;;0.60;;
4452;SDS011;2239;48.152;11.584;2022-09-30T09:40:42;0.70;;;0.70;;
4452;SDS011;2239;48.152;11.584;2022-09-30T09:54:23;0.90;;;0.70;;
4452;SDS011;2239;48.152;11.584;2022-09-30T09:56:52;3.13;;;0.80;;
4452;SDS011;2239;48.152;11.584;2022-09-30T09:59:19;0.87;;;0.60;;
4452;SDS011;2239;48.152;11.584;2022-09-30T10:02:00;1.90;;;1.13;;
4452;SDS011;2239;48.152;11.584;2022-09-30T10:04:27;0.87;;;0.80;;
4452;SDS011;2239;48.152;11.584;2022-09-30T10:09:32;0.83;;;0.60;;
4452;SDS011;2239;48.152;11.584;2022-09-30T10:14:31;1.17;;;0.60;;
4452;SDS011;2239;48.152;11.584;2022-09-30T10:17:26;1.10;;;0.60;;
4452;SDS011;2239;48.152;11.584;2022-09-30T10:19:59;0.60;;;0.53;;
4452;SDS011;2239;48.152;11.584;2022-09-30T10:22:46;0.70;;;0.50;;
4452;SDS011;2239;48.152;11.584;2022-09-30T10:25:22;0.73;;;0.50;;
4452;SDS011;2239;48.152;11.584;2022-09-30T10:27:50;0.80;;;0.60;;
4452;SDS011;2239;48.152;11.584;2022-09-30T10:30:40;0.77;;;0.50;;
4452;SDS011;2239;48.152;11.584;2022-09-30T10:33:16;0.70;;;0.60;;
4452;SDS011;2239;48.152;11.584;2022-09-30T10:35:51;1.00;;;0.50;;
4452;SDS011;2239;48.152;11.584;2022-09-30T10:38:22;1.23;;;0.80;;
4452;SDS011;2239;48.152;11.584;2022-09-30T10:40:49;0.60;;;0.40;;
4452;SDS011;2239;48.152;11.584;2022-09-30T10:43:29;0.70;;;0.50;;
4452;SDS011;2239;48.152;11.584;2022-09-30T10:46:09;0.90;;;0.50;;
4452;SDS011;2239;48.152;11.584;2022-09-30T10:48:35;1.10;;;0.40;;
4452;SDS011;2239;48.152;11.584;2022-09-30T10:51:02;0.70;;;0.60;;
4452;SDS011;2239;48.152;11.584;2022-09-30T10:53:31;1.10;;;0.60;;
4452;SDS011;2239;48.152;11.584;2022-09-30T10:55:59;1.53;;;0.70;;
4452;SDS011;2239;48.152;11.584;2022-09-30T10:58:42;1.13;;;0.87;;
4452;SDS011;2239;48.152;11.584;2022-09-30T11:07:02;0.70;;;0.70;;
4452;SDS011;2239;48.152;11.584;2022-09-30T11:13:06;0.90;;;0.70;;
4452;SDS011;2239;48.152;11.584;2022-09-30T11:18:34;1.10;;;0.50;;
4452;SDS011;2239;48.152;11.584;2022-09-30T11:21:13;0.70;;;0.67;;
4452;SDS011;2239;48.152;11.584;2022-09-30T11:23:45;1.07;;;0.50;;
4452;SDS011;2239;48.152;11.584;2022-09-30T11:26:24;0.80;;;0.57;;
4452;SDS011;2239;48.152;11.584;2022-09-30T11:40:09;0.70;;;0.50;;
4452;SDS011;2239;48.152;11.584;2022-09-30T11:42:50;0.80;;;0.50;;
4452;SDS011;2239;48.152;11.584;2022-09-30T11:53:40;0.80;;;0.50;;
4452;SDS011;2239;48.152;11.584;2022-09-30T11:59:12;1.33;;;0.73;;
4452;SDS011;2239;48.152;11.584;2022-09-30T12:01:45;1.23;;;0.70;;
4452;SDS011;2239;48.152;11.584;2022-09-30T12:04:46;1.20;;;0.60;;
4452;SDS011;2239;48.152;11.584;2022-09-30T12:07:18;1.07;;;0.80;;
4452;SDS011;2239;48.152;11.584;2022-09-30T12:09:47;2.03;;;0.80;;
4452;SDS011;2239;48.152;11.584;2022-09-30T12:12:17;0.90;;;0.80;;
4452;SDS011;2239;48.152;11.584;2022-09-30T12:17:21;0.60;;;0.53;;
4452;SDS011;2239;48.152;11.584;2022-09-30T12:19:52;1.67;;;0.80;;
4452;SDS011;2239;48.152;11.584;2022-09-30T12:24:52;2.10;;;0.83;;
4452;SDS011;2239;48.152;11.584;2022-09-30T12:27:41;0.77;;;0.70;;
4452;SDS011;2239;48.152;11.584;2022-09-30T12:30:15;1.53;;;0.97;;
4452;SDS011;2239;48.152;11.584;2022-09-30T12:41:17;1.10;;;0.70;;
4452;SDS011;2239;48.152;11.584;2022-09-30T12:44:00;0.70;;;0.60;;
4452;SDS011;2239;48.152;11.584;2022-09-30T12:49:20;5.00;;;1.30;;
4452;SDS011;2239;48.152;11.584;2022-09-30T12:51:51;1.00;;;0.60;;
4452;SDS011;2239;48.152;11.584;2022-09-30T12:54:21;0.63;;;0.63;;
4452;SDS011;2239;48.152;11.584;2022-09-30T12:57:00;2.40;;;0.77;;
4452;SDS011;2239;48.152;11.584;2022-09-30T12:59:32;0.80;;;0.67;;
4452;SDS011;2239;48.152;11.584;2022-09-30T13:02:01;1.23;;;0.57;;
4452;SDS011;2239;48.152;11.584;2022-09-30T13:04:29;0.97;;;0.70;;
4452;SDS011;2239;48.152;11.584;2022-09-30T13:09:36;0.93;;;0.77;;
4452;SDS011;2239;48.152;11.584;2022-09-30T13:12:41;1.77;;;0.97;;
4452;SDS011;2239;48.152;11.584;2022-09-30T13:17:53;0.60;;;0.60;;
4452;SDS011;2239;48.152;11.584;2022-09-30T13:28:48;1.03;;;0.67;;
4452;SDS011;2239;48.152;11.584;2022-09-30T13:31:16;0.87;;;0.57;;
4452;SDS011;2239;48.152;11.584;2022-09-30T13:33:44;0.70;;;0.60;;
4452;SDS011;2239;48.152;11.584;2022-09-30T13:36:25;1.10;;;0.80;;
4452;SDS011;2239;48.152;11.584;2022-09-30T13:39:07;0.70;;;0.60;;
4452;SDS011;2239;48.152;11.584;2022-09-30T13:41:45;1.17;;;0.70;;
4452;SDS011;2239;48.152;11.584;2022-09-30T13:44:30;1.23;;;0.60;;
4452;SDS011;2239;48.152;11.584;2022-09-30T13:47:16;1.20;;;0.60;;
4452;SDS011;2239;48.152;11.584;2022-09-30T13:49:48;1.13;;;0.60;;
4452;SDS011;2239;48.152;11.584;2022-09-30T13:52:33;1.33;;;0.87;;
4452;SDS011;2239;48.152;11.584;2022-09-30T13:55:10;1.53;;;0.80;;
4452;SDS011;2239;48.152;11.584;2022-09-30T14:00:26;2.33;;;0.90;;
4452;SDS011;2239;48.152;11.584;2022-09-30T14:06:20;1.00;;;0.60;;
4452;SDS011;2239;48.152;11.584;2022-09-30T14:09:15;1.13;;;0.70;;
4452;SDS011;2239;48.152;11.584;2022-09-30T14:11:57;0.97;;;0.60;;
4452;SDS011;2239;48.152;11.584;2022-09-30T14:23:00;0.93;;;0.60;;
4452;SDS011;2239;48.152;11.584;2022-09-30T14:25:28;1.63;;;0.80;;
4452;SDS011;2239;48.152;11.584;2022-09-30T14:28:04;1.43;;;0.67;;
4452;SDS011;2239;48.152;11.584;2022-09-30T14:30:41;0.93;;;0.50;;
4452;SDS011;2239;48.152;11.584;2022-09-30T14:33:30;1.53;;;1.00;;
4452;SDS011;2239;48.152;11.584;2022-09-30T14:35:59;1.03;;;0.90;;
4452;SDS011;2239;48.152;11.584;2022-09-30T14:38:27;0.63;;;0.63;;
4452;SDS011;2239;48.152;11.584;2022-09-30T14:40:55;1.33;;;0.50;;
4452;SDS011;2239;48.152;11.584;2022-09-30T14:43:28;1.90;;;0.80;;
4452;SDS011;2239;48.152;11.584;2022-09-30T14:46:44;0.67;;;0.57;;
4452;SDS011;2239;48.152;11.584;2022-09-30T14:48:46;0.87;;;0.40;;
4452;SDS011;2239;48.152;11.584;2022-09-30T14:51:14;1.17;;;0.70;;
4452;SDS011;2239;48.152;11.584;2022-09-30T14:56:25;0.90;;;0.70;;
4452;SDS011;2239;48.152;11.584;2022-09-30T14:59:00;2.00;;;1.07;;
4452;SDS011;2239;48.152;11.584;2022-09-30T15:01:49;1.77;;;0.70;;
4452;SDS011;2239;48.152;11.584;2022-09-30T15:04:17;0.70;;;0.50;;
4452;SDS011;2239;48.152;11.584;2022-09-30T15:06:49;1.00;;;0.50;;
4452;SDS011;2239;48.152;11.584;2022-09-30T15:11:45;1.07;;;0.70;;
4452;SDS011;2239;48.152;11.584;2022-09-30T15:16:50;0.77;;;0.70;;
4452;SDS011;2239;48.152;11.584;2022-09-30T15:19:28;1.27;;;0.70;;
4452;SDS011;2239;48.152;11.584;2022-09-30T15:21:58;0.57;;;0.57;;
4452;SDS011;2239;48.152;11.584;2022-09-30T15:24:27;1.00;;;0.70;;
4452;SDS011;2239;48.152;11.584;2022-09-30T15:26:55;2.07;;;1.30;;
4452;SDS011;2239;48.152;11.584;2022-09-30T15:29:22;1.73;;;0.80;;
4452;SDS011;2239;48.152;11.584;2022-09-30T15:31:54;0.90;;;0.70;;
4452;SDS011;2239;48.152;11.584;2022-09-30T15:34:26;1.27;;;0.70;;
4452;SDS011;2239;48.152;11.584;2022-09-30T15:36:56;1.27;;;0.80;;
4452;SDS011;2239;48.152;11.584;2022-09-30T15:39:27;1.93;;;0.90;;
4452;SDS011;2239;48.152;11.584;2022-09-30T15:42:26;0.73;;;0.73;;
4452;SDS011;2239;48.152;11.584;2022-09-30T15:45:04;0.90;;;0.90;;
4452;SDS011;2239;48.152;11.584;2022-09-30T15:48:26;0.80;;;0.67;;
4452;SDS011;2239;48.152;11.584;2022-09-30T15:53:17;0.93;;;0.83;;
4452;SDS011;2239;48.152;11.584;2022-09-30T15:55:51;2.50;;;1.00;;
4452;SDS011;2239;48.152;11.584;2022-09-30T16:00:51;2.07;;;1.00;;
4452;SDS011;2239;48.152;11.584;2022-09-30T16:03:38;0.83;;;0.50;;
4452;SDS011;2239;48.152;11.584;2022-09-30T16:06:11;3.73;;;1.23;;
4452;SDS011;2239;48.152;11.584;2022-09-30T16:08:43;0.73;;;0.60;;
4452;SDS011;2239;48.152;11.584;2022-09-30T16:11:17;1.33;;;0.93;;
4452;SDS011;2239;48.152;11.584;2022-09-30T16:13:47;0.70;;;0.60;;
4452;SDS011;2239;48.152;11.584;2022-09-30T16:16:16;0.80;;;0.70;;
4452;SDS011;2239;48.152;11.584;2022-09-30T16:18:47;1.20;;;0.80;;
4452;SDS011;2239;48.152;11.584;2022-09-30T16:21:26;1.27;;;0.70;;
4452;SDS011;2239;48.152;11.584;2022-09-30T16:23:54;1.10;;;0.87;;
4452;SDS011;2239;48.152;11.584;2022-09-30T16:26:21;1.77;;;1.10;;
4452;SDS011;2239;48.152;11.584;2022-09-30T16:28:52;1.77;;;1.00;;
4452;SDS011;2239;48.152;11.584;2022-09-30T16:31:20;0.70;;;0.70;;
4452;SDS011;2239;48.152;11.584;2022-09-30T16:33:49;1.10;;;1.00;;
4452;SDS011;2239;48.152;11.584;2022-09-30T16:36:14;1.47;;;1.03;;
4452;SDS011;2239;48.152;11.584;2022-09-30T16:38:40;1.20;;;0.70;;
4452;SDS011;2239;48.152;11.584;2022-09-30T16:41:13;2.00;;;0.70;;
4452;SDS011;2239;48.152;11.584;2022-09-30T16:43:38;1.63;;;0.80;;
4452;SDS011;2239;48.152;11.584;2022-09-30T16:46:04;2.10;;;0.80;;
4452;SDS011;2239;48.152;11.584;2022-09-30T16:48:31;1.00;;;1.00;;
4452;SDS011;2239;48.152;11.584;2022-09-30T16:53:37;1.63;;;1.00;;
4452;SDS011;2239;48.152;11.584;2022-09-30T16:56:03;1.60;;;1.10;;
4452;SDS011;2239;48.152;11.584;2022-09-30T16:58:29;2.00;;;0.90;;
4452;SDS011;2239;48.152;11.584;2022-09-30T17:01:01;1.20;;;0.83;;
4452;SDS011;2239;48.152;11.584;2022-09-30T17:03:26;1.73;;;1.00;;
4452;SDS011;2239;48.152;11.584;2022-09-30T17:05:52;1.50;;;0.70;;
4452;SDS011;2239;48.152;11.584;2022-09-30T17:08:18;1.97;;;1.03;;
4452;SDS011;2239;48.152;11.584;2022-09-30T17:10:45;1.93;;;0.90;;
4452;SDS011;2239;48.152;11.584;2022-09-30T17:13:13;1.10;;;0.70;;
4452;SDS011;2239;48.152;11.584;2022-09-30T17:15:40;2.03;;;1.17;;
4452;SDS011;2239;48.152;11.584;2022-09-30T17:18:07;1.83;;;1.33;;
4452;SDS011;2239;48.152;11.584;2022-09-30T17:20:34;1.37;;;0.90;;
4452;SDS011;2239;48.152;11.584;2022-09-30T17:23:01;1.00;;;0.90;;
4452;SDS011;2239;48.152;11.584;2022-09-30T17:25:27;0.70;;;0.70;;
4452;SDS011;2239;48.152;11.584;2022-09-30T17:27:53;1.10;;;0.80;;
4452;SDS011;2239;48.152;11.584;2022-09-30T17:30:19;3.80;;;1.07;;
4452;SDS011;2239;48.152;11.584;2022-09-30T17:32:45;2.80;;;1.33;;
4452;SDS011;2239;48.152;11.584;2022-09-30T17:35:11;1.30;;;1.20;;
4452;SDS011;2239;48.152;11.584;2022-09-30T17:37:38;2.90;;;1.50;;
4452;SDS011;2239;48.152;11.584;2022-09-30T17:40:04;3.37;;;1.60;;
4452;SDS011;2239;48.152;11.584;2022-09-30T17:42:51;2.00;;;1.20;;
4452;SDS011;2239;48.152;11.584;2022-09-30T17:45:38;5.00;;;2.50;;
4452;SDS011;2239;48.152;11.584;2022-09-30T17:48:06;2.00;;;1.37;;
4452;SDS011;2239;48.152;11.584;2022-09-30T17:50:36;3.50;;;1.60;;
4452;SDS011;2239;48.152;11.584;2022-09-30T17:53:06;3.53;;;2.20;;
4452;SDS011;2239;48.152;11.584;2022-09-30T17:55:32;4.13;;;1.70;;
4452;SDS011;2239;48.152;11.584;2022-09-30T17:57:59;1.77;;;1.63;;
4452;SDS011;2239;48.152;11.584;2022-09-30T18:00:27;3.60;;;1.60;;
4452;SDS011;2239;48.152;11.584;2022-09-30T18:02:53;3.30;;;1.27;;
4452;SDS011;2239;48.152;11.584;2022-09-30T18:05:19;3.10;;;1.60;;
4452;SDS011;2239;48.152;11.584;2022-09-30T18:07:45;3.30;;;1.23;;
4452;SDS011;2239;48.152;11.584;2022-09-30T18:10:11;2.73;;;1.83;;
4452;SDS011;2239;48.152;11.584;2022-09-30T18:12:37;2.83;;;1.57;;
4452;SDS011;2239;48.152;11.584;2022-09-30T18:15:03;2.60;;;1.63;;
4452;SDS011;2239;48.152;11.584;2022-09-30T18:17:30;3.87;;;1.67;;
4452;SDS011;2239;48.152;11.584;2022-09-30T18:19:55;13.70;;;2.17;;
4452;SDS011;2239;48.152;11.584;2022-09-30T18:22:21;3.30;;;1.77;;
4452;SDS011;2239;48.152;11.584;2022-09-30T18:24:47;2.13;;;1.73;;
4452;SDS011;2239;48.152;11.584;2022-09-30T18:27:31;1.77;;;1.20;;
4452;SDS011;2239;48.152;11.584;2022-09-30T18:30:01;2.00;;;1.63;;
4452;SDS011;2239;48.152;11.584;2022-09-30T18:32:29;3.67;;;1.77;;
4452;SDS011;2239;48.152;11.584;2022-09-30T18:34:55;7.83;;;2.40;;
4452;SDS011;2239;48.152;11.584;2022-09-30T18:37:21;4.00;;;2.00;;
4452;SDS011;2239;48.152;11.584;2022-09-30T18:39:47;2.20;;;1.23;;
4452;SDS011;2239;48.152;11.584;2022-09-30T18:42:13;2.50;;;1.37;;
4452;SDS011;2239;48.152;11.584;2022-09-30T18:44:39;1.50;;;1.30;;
4452;SDS011;2239;48.152;11.584;2022-09-30T18:47:05;2.40;;;1.13;;
4452;SDS011;2239;48.152;11.584;2022-09-30T18:49:31;1.93;;;1.40;;